createdAt,value
2018-10-12T00:01:18.212Z,7.50
2018-10-12T00:03:46.206Z,7.23
2018-10-12T00:06:14.035Z,6.70
2018-10-12T00:08:42.620Z,7.20
2018-10-12T00:11:11.496Z,7.33
2018-10-12T00:13:39.341Z,7.13
2018-10-12T00:16:07.308Z,6.90
2018-10-12T00:18:35.174Z,6.47
2018-10-12T00:21:02.987Z,5.97
2018-10-12T00:23:30.885Z,5.47
2018-10-12T00:25:58.945Z,5.80
2018-10-12T00:28:26.771Z,3.20
2018-10-12T00:30:54.676Z,4.27
2018-10-12T00:33:22.516Z,4.53
2018-10-12T00:35:50.332Z,4.07
2018-10-12T00:38:18.145Z,3.97
2018-10-12T00:40:46.023Z,2.90
2018-10-12T00:43:13.860Z,2.97
2018-10-12T00:45:41.678Z,3.27
2018-10-12T00:48:09.552Z,3.33
2018-10-12T00:50:37.342Z,3.00
2018-10-12T00:53:05.283Z,3.23
2018-10-12T00:55:34.089Z,3.43
2018-10-12T00:58:01.947Z,3.70
2018-10-12T01:00:29.849Z,2.90
2018-10-12T01:02:57.816Z,3.70
2018-10-12T01:05:25.820Z,3.90
2018-10-12T01:07:53.845Z,3.40
2018-10-12T01:10:21.701Z,3.47
2018-10-12T01:12:49.574Z,3.90
2018-10-12T01:15:17.377Z,4.43
2018-10-12T01:17:45.256Z,4.20
2018-10-12T01:20:13.160Z,5.07
2018-10-12T01:22:41.066Z,4.73
2018-10-12T01:25:09.344Z,5.40
2018-10-12T01:27:37.288Z,5.90
2018-10-12T01:30:06.144Z,5.23
2018-10-12T01:32:39.502Z,6.23
2018-10-12T01:35:07.413Z,7.50
2018-10-12T01:37:35.345Z,7.63
2018-10-12T01:40:03.247Z,7.87
2018-10-12T01:42:31.181Z,9.53
2018-10-12T01:44:58.977Z,9.37
2018-10-12T01:47:26.872Z,9.50
2018-10-12T01:49:54.850Z,10.13
2018-10-12T01:52:22.690Z,8.73
2018-10-12T01:54:50.600Z,9.17
2018-10-12T01:57:18.523Z,9.47
2018-10-12T01:59:46.412Z,10.43
2018-10-12T02:02:14.313Z,9.07
2018-10-12T02:04:42.173Z,9.27
2018-10-12T02:07:09.997Z,9.03
2018-10-12T02:09:37.847Z,11.00
2018-10-12T02:12:05.746Z,11.67
2018-10-12T02:14:33.554Z,12.07
2018-10-12T02:17:01.424Z,11.43
2018-10-12T02:19:29.241Z,10.20
2018-10-12T02:21:57.034Z,10.70
2018-10-12T02:24:24.919Z,11.80
2018-10-12T02:26:52.809Z,10.70
2018-10-12T02:29:20.616Z,10.83
2018-10-12T02:31:48.419Z,10.27
2018-10-12T02:34:16.235Z,11.37
2018-10-12T02:36:44.087Z,12.37
2018-10-12T02:39:14.310Z,12.43
2018-10-12T02:41:42.148Z,14.60
2018-10-12T02:44:10.504Z,13.27
2018-10-12T02:46:38.384Z,13.43
2018-10-12T02:49:06.690Z,14.33
2018-10-12T02:51:34.497Z,12.77
2018-10-12T02:54:02.344Z,12.80
2018-10-12T02:56:30.141Z,13.20
2018-10-12T02:58:57.956Z,12.57
2018-10-12T03:01:25.816Z,11.33
2018-10-12T03:03:53.686Z,12.73
2018-10-12T03:06:22.496Z,11.97
2018-10-12T03:08:50.407Z,13.33
2018-10-12T03:11:18.224Z,12.23
2018-10-12T03:13:46.065Z,13.33
2018-10-12T03:16:14.326Z,12.60
2018-10-12T03:18:42.629Z,13.80
2018-10-12T03:21:10.513Z,14.30
2018-10-12T03:23:38.342Z,14.77
2018-10-12T03:26:06.137Z,13.13
2018-10-12T03:28:35.414Z,14.67
2018-10-12T03:31:03.930Z,16.20
2018-10-12T03:33:32.339Z,15.00
2018-10-12T03:36:00.835Z,16.57
2018-10-12T03:38:28.842Z,18.27
2018-10-12T03:40:57.175Z,20.57
2018-10-12T03:43:25.103Z,17.40
2018-10-12T03:45:52.966Z,17.67
2018-10-12T03:48:20.832Z,17.07
2018-10-12T03:50:48.782Z,18.13
2018-10-12T03:53:17.205Z,19.50
2018-10-12T03:55:45.272Z,18.30
2018-10-12T03:58:13.640Z,16.80
2018-10-12T04:00:42.255Z,17.03
2018-10-12T04:03:10.147Z,15.23
2018-10-12T04:05:38.017Z,14.57
2018-10-12T04:08:05.943Z,14.83
2018-10-12T04:10:33.925Z,16.27
2018-10-12T04:13:01.723Z,14.03
2018-10-12T04:15:30.705Z,13.10
2018-10-12T04:17:58.543Z,14.07
2018-10-12T04:20:26.400Z,13.80
2018-10-12T04:22:54.787Z,13.60
2018-10-12T04:25:23.581Z,13.83
2018-10-12T04:27:51.446Z,14.60
2018-10-12T04:30:19.542Z,12.90
2018-10-12T04:32:47.365Z,11.53
2018-10-12T04:35:15.845Z,10.70
2018-10-12T04:37:43.813Z,12.37
2018-10-12T04:41:27.785Z,12.17
2018-10-12T04:43:58.109Z,11.80
2018-10-12T04:46:29.613Z,11.83
2018-10-12T04:48:57.800Z,13.00
2018-10-12T04:51:30.258Z,11.63
2018-10-12T04:53:58.294Z,12.77
2018-10-12T04:56:26.872Z,12.37
2018-10-12T04:58:54.999Z,12.53
2018-10-12T05:01:23.109Z,14.27
2018-10-12T05:03:50.993Z,13.87
2018-10-12T05:06:19.971Z,14.93
2018-10-12T05:08:47.773Z,14.77
2018-10-12T05:11:15.635Z,13.80
2018-10-12T05:13:44.941Z,14.43
2018-10-12T05:16:12.979Z,16.50
2018-10-12T05:18:40.840Z,17.60
2018-10-12T05:21:10.208Z,18.43
2018-10-12T05:23:38.105Z,18.33
2018-10-12T05:26:06.829Z,19.23
2018-10-12T05:28:36.807Z,20.17
2018-10-12T05:31:04.683Z,22.27
2018-10-12T05:33:33.126Z,21.50
2018-10-12T05:36:01.146Z,21.30
2018-10-12T05:38:30.372Z,20.43
2018-10-12T05:40:59.353Z,21.17
2018-10-12T05:43:27.381Z,19.70
2018-10-12T05:45:55.547Z,22.03
2018-10-12T05:48:34.476Z,21.13
2018-10-12T05:51:03.546Z,22.17
2018-10-12T05:53:33.844Z,23.87
2018-10-12T05:56:02.155Z,21.80
2018-10-12T05:58:30.875Z,23.90
2018-10-12T06:00:58.953Z,24.63
2018-10-12T06:03:27.087Z,24.17
2018-10-12T06:05:55.484Z,25.90
2018-10-12T06:08:24.455Z,26.30
2018-10-12T06:10:52.628Z,24.07
2018-10-12T06:13:21.206Z,23.67
2018-10-12T06:15:49.833Z,26.80
2018-10-12T06:18:17.848Z,27.13
2018-10-12T06:20:45.800Z,25.87
2018-10-12T06:23:13.776Z,24.83
2018-10-12T06:25:41.901Z,28.27
2018-10-12T06:28:09.780Z,27.40
2018-10-12T06:30:37.648Z,27.70
2018-10-12T06:33:05.515Z,25.53
2018-10-12T06:35:34.487Z,23.87
2018-10-12T06:38:02.549Z,23.77
2018-10-12T06:40:34.373Z,23.63
2018-10-12T06:43:06.215Z,24.03
2018-10-12T06:45:34.260Z,23.60
2018-10-12T06:48:02.165Z,21.47
2018-10-12T06:50:30.137Z,24.73
2018-10-12T06:52:58.745Z,24.30
2018-10-12T06:55:27.007Z,26.33
2018-10-12T06:57:55.476Z,27.43
2018-10-12T07:00:24.074Z,25.37
2018-10-12T07:02:52.372Z,26.40
2018-10-12T07:05:20.585Z,25.17
2018-10-12T07:07:48.630Z,26.20
2018-10-12T07:10:16.719Z,28.97
2018-10-12T07:12:44.725Z,30.37
2018-10-12T07:15:12.763Z,33.40
2018-10-12T07:17:41.424Z,31.90
2018-10-12T07:20:09.529Z,31.70
2018-10-12T07:22:37.367Z,29.73
2018-10-12T07:25:05.411Z,30.97
2018-10-12T07:27:33.367Z,28.97
2018-10-12T07:30:02.360Z,30.43
2018-10-12T07:32:30.355Z,29.13
2018-10-12T07:34:58.423Z,26.70
2018-10-12T07:37:27.560Z,24.40
2018-10-12T07:39:55.569Z,27.60
2018-10-12T07:42:23.611Z,28.57
2018-10-12T07:44:52.444Z,29.17
2018-10-12T07:47:20.352Z,24.77
2018-10-12T07:49:48.288Z,29.60
2018-10-12T07:52:16.743Z,27.17
2018-10-12T07:54:45.383Z,32.13
2018-10-12T07:57:14.645Z,31.53
2018-10-12T07:59:43.542Z,29.17
2018-10-12T08:02:12.262Z,28.03
2018-10-12T08:04:41.344Z,27.57
2018-10-12T08:07:09.860Z,25.97
2018-10-12T08:09:38.355Z,25.97
2018-10-12T08:12:07.434Z,22.07
2018-10-12T08:14:35.643Z,27.33
2018-10-12T08:17:04.768Z,24.50
2018-10-12T08:19:33.333Z,29.87
2018-10-12T08:22:02.394Z,25.27
2018-10-12T08:24:30.479Z,26.00
2018-10-12T08:26:58.772Z,26.77
2018-10-12T08:29:27.644Z,28.43
2018-10-12T08:31:55.747Z,26.40
2018-10-12T08:34:24.801Z,25.20
2018-10-12T08:36:53.450Z,28.13
2018-10-12T08:39:21.581Z,29.67
2018-10-12T08:41:49.865Z,25.13
2018-10-12T08:44:17.970Z,27.27
2018-10-12T08:46:46.138Z,25.00
2018-10-12T08:49:14.532Z,28.10
2018-10-12T08:51:42.613Z,26.47
2018-10-12T08:54:10.578Z,26.10
2018-10-12T08:56:38.789Z,28.17
2018-10-12T08:59:06.912Z,25.70
2018-10-12T09:01:34.762Z,20.87
2018-10-12T09:04:04.389Z,20.50
2018-10-12T09:06:32.262Z,20.97
2018-10-12T09:09:01.125Z,22.63
2018-10-12T09:11:29.109Z,24.67
2018-10-12T09:13:57.576Z,25.97
2018-10-12T09:16:25.610Z,24.33
2018-10-12T09:18:53.617Z,22.90
2018-10-12T09:21:21.541Z,21.40
2018-10-12T09:23:49.530Z,21.60
2018-10-12T09:26:17.393Z,24.97
2018-10-12T09:28:45.330Z,23.83
2018-10-12T09:31:13.372Z,23.70
2018-10-12T09:33:41.338Z,24.57
2018-10-12T09:36:09.124Z,25.13
2018-10-12T09:38:37.100Z,25.10
2018-10-12T09:41:04.952Z,25.67
2018-10-12T09:43:32.772Z,24.23
2018-10-12T09:46:00.770Z,25.87
2018-10-12T09:48:28.748Z,27.20
2018-10-12T09:50:56.693Z,26.50
2018-10-12T09:53:24.693Z,23.80
2018-10-12T09:55:53.362Z,24.17
2018-10-12T09:58:21.266Z,23.17
2018-10-12T10:00:54.678Z,22.53
2018-10-12T10:03:28.559Z,24.63
2018-10-12T10:05:56.409Z,24.73
2018-10-12T10:08:25.389Z,21.90
2018-10-12T10:10:53.312Z,19.43
2018-10-12T10:13:21.301Z,20.23
2018-10-12T10:15:49.239Z,20.00
2018-10-12T10:18:17.233Z,20.07
2018-10-12T10:20:45.167Z,20.13
2018-10-12T10:23:13.023Z,20.93
2018-10-12T10:25:40.826Z,22.40
2018-10-12T10:28:08.590Z,21.90
2018-10-12T10:30:36.460Z,21.67
2018-10-12T10:33:04.406Z,23.50
2018-10-12T10:35:32.365Z,22.50
2018-10-12T10:38:00.248Z,22.50
2018-10-12T10:40:28.157Z,22.27
2018-10-12T10:42:56.068Z,22.10
2018-10-12T10:45:24.165Z,23.10
2018-10-12T10:47:52.028Z,22.73
2018-10-12T10:50:19.849Z,23.60
2018-10-12T10:52:47.874Z,21.40
2018-10-12T10:55:15.846Z,20.67
2018-10-12T10:57:43.724Z,21.43
2018-10-12T11:00:12.605Z,20.23
2018-10-12T11:02:40.606Z,20.70
2018-10-12T11:05:09.814Z,22.20
2018-10-12T11:07:38.055Z,19.70
2018-10-12T11:10:06.151Z,20.27
2018-10-12T11:12:34.116Z,21.80
2018-10-12T11:15:02.156Z,21.87
2018-10-12T11:17:29.999Z,20.10
2018-10-12T11:19:58.844Z,21.07
2018-10-12T11:22:26.910Z,19.47
2018-10-12T11:24:54.760Z,21.80
2018-10-12T11:27:22.737Z,22.17
2018-10-12T11:29:50.803Z,19.40
2018-10-12T11:32:18.842Z,21.43
2018-10-12T11:34:47.853Z,22.23
2018-10-12T11:37:15.923Z,21.07
2018-10-12T11:39:44.049Z,18.87
2018-10-12T11:42:11.996Z,19.73
2018-10-12T11:44:39.940Z,22.27
2018-10-12T11:47:07.893Z,23.40
2018-10-12T11:49:35.915Z,22.90
2018-10-12T11:52:04.195Z,21.83
2018-10-12T11:54:32.365Z,22.33
2018-10-12T11:57:00.250Z,21.40
2018-10-12T11:59:28.274Z,22.93
2018-10-12T12:01:56.191Z,23.20
2018-10-12T12:04:24.147Z,25.70
2018-10-12T12:06:52.658Z,25.03
2018-10-12T12:09:21.040Z,25.80
2018-10-12T12:11:49.121Z,24.20
2018-10-12T12:14:17.095Z,25.87
2018-10-12T12:16:45.162Z,24.53
2018-10-12T12:19:13.198Z,23.73
2018-10-12T12:21:41.208Z,25.07
2018-10-12T12:24:09.063Z,24.13
2018-10-12T12:26:36.948Z,26.27
2018-10-12T12:29:04.900Z,25.37
2018-10-12T12:31:32.904Z,25.37
2018-10-12T12:34:00.822Z,25.83
2018-10-12T12:36:28.769Z,24.10
2018-10-12T12:38:56.781Z,25.97
2018-10-12T12:41:25.524Z,24.27
2018-10-12T12:43:53.652Z,25.53
2018-10-12T12:46:21.844Z,25.57
2018-10-12T12:48:50.903Z,25.80
2018-10-12T12:51:20.143Z,27.23
2018-10-12T12:53:48.222Z,24.70
2018-10-12T12:56:16.189Z,26.43
2018-10-12T12:58:44.199Z,27.00
2018-10-12T13:01:12.116Z,25.73
2018-10-12T13:03:41.095Z,27.10
2018-10-12T13:06:09.095Z,27.53
2018-10-12T13:08:37.937Z,26.93
2018-10-12T13:11:05.757Z,27.83
2018-10-12T13:13:34.722Z,27.47
2018-10-12T13:16:03.502Z,29.20
2018-10-12T13:18:31.797Z,29.70
2018-10-12T13:20:59.873Z,28.63
2018-10-12T13:23:28.769Z,29.90
2018-10-12T13:25:57.078Z,30.17
2018-10-12T13:28:25.008Z,29.90
2018-10-12T13:30:53.494Z,34.57
2018-10-12T13:33:21.557Z,34.17
2018-10-12T13:35:50.519Z,30.93
2018-10-12T13:38:18.655Z,32.90
2018-10-12T13:40:46.565Z,32.77
2018-10-12T13:43:17.370Z,32.87
2018-10-12T13:45:47.642Z,32.53
2018-10-12T13:48:16.404Z,32.13
2018-10-12T13:50:45.864Z,32.93
2018-10-12T13:53:14.611Z,30.30
2018-10-12T13:55:42.429Z,31.63
2018-10-12T13:58:11.274Z,30.50
2018-10-12T14:00:39.182Z,30.43
2018-10-12T14:03:07.685Z,27.57
2018-10-12T14:05:35.592Z,28.97
2018-10-12T14:08:03.459Z,27.30
2018-10-12T14:10:31.356Z,27.77
2018-10-12T14:12:59.261Z,30.03
2018-10-12T14:15:27.130Z,27.93
2018-10-12T14:17:54.952Z,28.50
2018-10-12T14:20:22.741Z,29.30
2018-10-12T14:22:50.502Z,31.23
2018-10-12T14:25:18.269Z,30.47
2018-10-12T14:27:46.113Z,28.37
2018-10-12T14:30:13.862Z,27.60
2018-10-12T14:32:41.697Z,30.93
2018-10-12T14:35:09.513Z,25.93
2018-10-12T14:37:37.388Z,28.07
2018-10-12T14:40:05.199Z,26.03
2018-10-12T14:42:33.022Z,24.83
2018-10-12T14:45:00.864Z,26.87
2018-10-12T14:47:29.693Z,25.27
2018-10-12T14:49:57.447Z,23.37
2018-10-12T14:52:25.282Z,23.97
2018-10-12T14:54:53.071Z,20.73
2018-10-12T14:57:20.989Z,21.07
2018-10-12T14:59:50.138Z,20.07
2018-10-12T15:02:18.685Z,18.73
2018-10-12T15:04:46.462Z,18.63
2018-10-12T15:07:14.275Z,22.00
2018-10-12T15:09:42.056Z,18.30
2018-10-12T15:12:09.913Z,16.80
2018-10-12T15:15:43.520Z,17.53
2018-10-12T15:18:11.325Z,18.13
2018-10-12T15:20:39.096Z,18.90
2018-10-12T15:23:06.952Z,16.07
2018-10-12T15:25:34.754Z,15.77
2018-10-12T15:28:02.556Z,15.37
2018-10-12T15:30:30.336Z,16.17
2018-10-12T15:32:58.179Z,14.63
2018-10-12T15:35:25.978Z,14.30
2018-10-12T15:37:53.753Z,14.40
2018-10-12T15:40:21.663Z,16.60
2018-10-12T15:42:49.520Z,16.30
2018-10-12T15:45:17.344Z,16.00
2018-10-12T15:47:45.183Z,15.33
2018-10-12T15:50:12.953Z,16.77
2018-10-12T15:52:40.803Z,15.83
2018-10-12T15:55:08.656Z,14.13
2018-10-12T15:57:36.509Z,16.03
2018-10-12T16:00:04.572Z,16.00
2018-10-12T16:02:32.377Z,14.97
2018-10-12T16:05:00.243Z,14.67
2018-10-12T16:07:28.160Z,14.90
2018-10-12T16:09:55.936Z,16.17
2018-10-12T16:12:24.206Z,18.23
2018-10-12T16:14:52.624Z,15.00
2018-10-12T16:17:20.462Z,16.43
2018-10-12T16:19:48.258Z,16.00
2018-10-12T16:22:16.097Z,15.77
2018-10-12T16:26:51.626Z,17.03
2018-10-12T16:29:19.411Z,17.17
2018-10-12T16:31:47.240Z,18.47
2018-10-12T16:34:15.045Z,22.10
2018-10-12T16:36:42.897Z,19.30
2018-10-12T16:39:11.120Z,18.27
2018-10-12T16:41:42.470Z,18.63
2018-10-12T16:44:10.246Z,21.77
2018-10-12T16:46:38.223Z,21.33
2018-10-12T16:49:06.404Z,19.00
2018-10-12T16:51:34.136Z,20.57
2018-10-12T16:54:01.974Z,21.37
2018-10-12T16:56:29.780Z,24.03
2018-10-12T16:58:57.690Z,20.03
2018-10-12T17:01:25.500Z,21.93
2018-10-12T17:03:53.319Z,19.83
2018-10-12T17:06:21.140Z,19.77
2018-10-12T17:08:48.951Z,19.23
2018-10-12T17:11:16.885Z,18.47
2018-10-12T17:13:44.701Z,18.10
2018-10-12T17:16:12.445Z,16.13
2018-10-12T17:18:40.316Z,18.67
2018-10-12T17:21:08.706Z,20.43
2018-10-12T17:23:36.460Z,18.03
2018-10-12T17:26:04.312Z,19.00
2018-10-12T17:28:32.122Z,17.97
2018-10-12T17:30:59.886Z,17.03
2018-10-12T17:33:27.768Z,18.17
2018-10-12T17:35:55.542Z,19.17
2018-10-12T17:38:23.690Z,22.03
2018-10-12T17:40:51.601Z,24.60
2018-10-12T17:43:19.550Z,22.00
2018-10-12T17:45:47.457Z,19.97
2018-10-12T17:48:16.124Z,23.23
2018-10-12T17:50:43.955Z,21.70
2018-10-12T17:53:11.845Z,25.20
2018-10-12T17:55:39.773Z,23.33
2018-10-12T17:58:07.642Z,24.53
2018-10-12T18:00:35.748Z,19.03
2018-10-12T18:03:04.778Z,17.53
2018-10-12T18:05:32.560Z,17.73
2018-10-12T18:08:00.513Z,18.67
2018-10-12T18:10:28.446Z,20.83
2018-10-12T18:12:56.255Z,20.40
2018-10-12T18:15:24.291Z,20.70
2018-10-12T18:17:52.085Z,19.40
2018-10-12T18:20:20.071Z,18.60
2018-10-12T18:22:48.196Z,18.17
2018-10-12T18:25:15.958Z,19.93
2018-10-12T18:27:43.763Z,19.27
2018-10-12T18:30:11.556Z,19.40
2018-10-12T18:32:39.335Z,19.93
2018-10-12T18:35:07.103Z,19.97
2018-10-12T18:37:34.978Z,22.00
2018-10-12T18:40:02.766Z,20.57
2018-10-12T18:42:30.531Z,19.63
2018-10-12T18:44:58.345Z,18.33
2018-10-12T18:47:26.111Z,18.80
2018-10-12T18:49:53.897Z,19.20
2018-10-12T18:52:21.741Z,19.13
2018-10-12T18:54:49.501Z,20.57
2018-10-12T18:57:17.228Z,21.73
2018-10-12T18:59:45.110Z,22.57
2018-10-12T19:02:12.819Z,20.97
2018-10-12T19:04:40.726Z,20.10
2018-10-12T19:07:08.448Z,22.60
2018-10-12T19:09:36.226Z,22.40
2018-10-12T19:12:04.016Z,20.87
2018-10-12T19:14:31.806Z,22.50
2018-10-12T19:16:59.639Z,22.70
2018-10-12T19:19:27.440Z,20.67
2018-10-12T19:21:55.240Z,23.60
2018-10-12T19:24:23.007Z,22.67
2018-10-12T19:26:50.757Z,24.03
2018-10-12T19:29:18.481Z,26.37
2018-10-12T19:31:46.237Z,20.43
2018-10-12T19:34:14.014Z,21.90
2018-10-12T19:36:41.734Z,24.17
2018-10-12T19:39:09.880Z,21.17
2018-10-12T19:41:37.682Z,23.90
2018-10-12T19:44:05.716Z,21.17
2018-10-12T19:46:33.496Z,22.53
2018-10-12T19:49:01.274Z,25.73
2018-10-12T19:51:29.104Z,23.90
2018-10-12T19:53:56.893Z,21.10
2018-10-12T19:56:24.696Z,22.50
2018-10-12T19:58:56.032Z,22.73
2018-10-12T20:01:23.780Z,23.83
2018-10-12T20:03:51.541Z,23.33
2018-10-12T20:06:19.340Z,23.50
2018-10-12T20:08:47.145Z,26.93
2018-10-12T20:11:14.854Z,27.17
2018-10-12T20:13:42.617Z,27.33
2018-10-12T20:16:10.375Z,24.67
2018-10-12T20:18:38.130Z,23.93
2018-10-12T20:21:06.202Z,24.60
2018-10-12T20:23:33.984Z,25.07
2018-10-12T20:26:01.736Z,23.77
2018-10-12T20:28:29.579Z,24.43
2018-10-12T20:30:57.337Z,23.80
2018-10-12T20:33:25.056Z,27.10
2018-10-12T20:35:52.856Z,27.43
2018-10-12T20:38:20.614Z,27.73
2018-10-12T20:40:48.368Z,27.67
2018-10-12T20:43:16.165Z,26.37
2018-10-12T20:45:43.915Z,26.20
2018-10-12T20:48:11.718Z,26.57
2018-10-12T20:50:39.538Z,23.67
2018-10-12T20:53:07.263Z,25.83
2018-10-12T20:55:35.022Z,26.33
2018-10-12T20:58:02.805Z,33.03
2018-10-12T21:00:30.615Z,27.83
2018-10-12T21:02:58.331Z,27.37
2018-10-12T21:05:26.145Z,24.07
2018-10-12T21:07:53.863Z,26.73
2018-10-12T21:10:21.572Z,30.50
2018-10-12T21:12:49.350Z,28.20
2018-10-12T21:15:17.075Z,26.73
2018-10-12T21:17:44.895Z,25.37
2018-10-12T21:20:12.783Z,27.73
2018-10-12T21:22:40.493Z,29.63
2018-10-12T21:25:08.269Z,28.00
2018-10-12T21:27:36.022Z,27.20
2018-10-12T21:30:03.839Z,27.00
2018-10-12T21:32:31.641Z,28.30
2018-10-12T21:34:59.376Z,25.63
2018-10-12T21:37:27.109Z,26.80
2018-10-12T21:39:54.920Z,27.37
2018-10-12T21:42:22.704Z,27.63
2018-10-12T21:44:50.475Z,28.67
2018-10-12T21:47:18.230Z,30.93
2018-10-12T21:49:45.943Z,31.47
2018-10-12T21:52:13.722Z,27.10
2018-10-12T21:54:41.493Z,30.07
2018-10-12T21:57:09.264Z,27.30
2018-10-12T21:59:36.995Z,28.73
2018-10-12T22:02:04.793Z,27.37
2018-10-12T22:04:32.666Z,30.73
2018-10-12T22:07:00.422Z,33.03
2018-10-12T22:09:28.167Z,30.50
2018-10-12T22:11:55.935Z,31.93
2018-10-12T22:14:23.678Z,32.30
2018-10-12T22:16:51.385Z,34.43
2018-10-12T22:19:19.215Z,33.23
2018-10-12T22:21:47.011Z,33.67
2018-10-12T22:24:14.984Z,34.93
2018-10-12T22:26:42.754Z,37.33
2018-10-12T22:29:10.575Z,35.83
2018-10-12T22:31:38.484Z,35.50
2018-10-12T22:34:06.298Z,39.43
2018-10-12T22:36:34.140Z,37.60
2018-10-12T22:39:01.932Z,34.83
2018-10-12T22:41:29.795Z,33.10
2018-10-12T22:43:57.558Z,31.70
2018-10-12T22:46:25.264Z,32.67
2018-10-12T22:48:53.021Z,31.03
2018-10-12T22:51:20.757Z,29.23
2018-10-12T22:53:48.565Z,30.33
2018-10-12T22:56:16.360Z,28.63
2018-10-12T22:58:44.099Z,25.30
2018-10-12T23:01:11.882Z,31.50
2018-10-12T23:03:39.692Z,30.53
2018-10-12T23:06:07.464Z,32.23
2018-10-12T23:08:35.208Z,35.27
2018-10-12T23:11:03.035Z,33.07
2018-10-12T23:13:31.486Z,30.47
2018-10-12T23:15:59.224Z,28.83
2018-10-12T23:18:27.020Z,26.00
2018-10-12T23:20:55.356Z,29.77
2018-10-12T23:23:23.145Z,29.93
2018-10-12T23:25:50.881Z,27.03
2018-10-12T23:28:18.614Z,39.00
2018-10-12T23:30:46.459Z,28.00
2018-10-12T23:33:25.388Z,28.83
2018-10-12T23:35:53.176Z,27.27
2018-10-12T23:38:20.914Z,33.43
2018-10-12T23:40:48.652Z,30.57
2018-10-12T23:43:16.405Z,27.77
2018-10-12T23:45:44.173Z,29.97
2018-10-12T23:48:11.914Z,28.83
2018-10-12T23:50:39.649Z,44.43
2018-10-12T23:53:07.396Z,32.47
2018-10-12T23:55:35.203Z,40.07
2018-10-12T23:58:02.973Z,28.77
